sensor_id;sensor_type;location;lat;lon;timestamp;pressure;altitude;pressure_sealevel;temperature;humidity
31082;BME280;17737;52.586;13.284;2023-10-19T00:00:33;100120.34;;;7.54;100.00
31082;BME280;17737;52.586;13.284;2023-10-19T00:03:02;100116.31;;;7.42;100.00
31082;BME280;17737;52.586;13.284;2023-10-19T00:05:33;100128.66;;;7.35;100.00
31082;BME280;17737;52.586;13.284;2023-10-19T00:08:00;100123.13;;;7.28;100.00
31082;BME280;17737;52.586;13.284;2023-10-19T00:10:32;100119.13;;;7.41;100.00
31082;BME280;17737;52.586;13.284;2023-10-19T00:13:02;100112.59;;;7.43;100.00
31082;BME280;17737;52.586;13.284;2023-10-19T00:15:31;100105.75;;;7.57;100.00
31082;BME280;17737;52.586;13.284;2023-10-19T00:18:01;100097.03;;;7.39;100.00
31082;BME280;17737;52.586;13.284;2023-10-19T00:20:47;100103.03;;;7.32;100.00
31082;BME280;17737;52.586;13.284;2023-10-19T00:23:19;100099.16;;;7.27;100.00
31082;BME280;17737;52.586;13.284;2023-10-19T00:25:55;100090.13;;;7.28;100.00
31082;BME280;17737;52.586;13.284;2023-10-19T00:28:23;100095.16;;;7.31;100.00
31082;BME280;17737;52.586;13.284;2023-10-19T00:30:54;100083.81;;;7.45;100.00
31082;BME280;17737;52.586;13.284;2023-10-19T00:33:29;100066.69;;;7.38;100.00
31082;BME280;17737;52.586;13.284;2023-10-19T00:35:59;100053.47;;;7.37;100.00
31082;BME280;17737;52.586;13.284;2023-10-19T00:38:33;100046.91;;;7.31;100.00
31082;BME280;17737;52.586;13.284;2023-10-19T00:41:14;100044.91;;;7.33;100.00
31082;BME280;17737;52.586;13.284;2023-10-19T00:43:48;100040.38;;;7.25;100.00
31082;BME280;17737;52.586;13.284;2023-10-19T00:46:18;100032.19;;;7.35;100.00
31082;BME280;17737;52.586;13.284;2023-10-19T00:48:58;100040.38;;;7.25;100.00
31082;BME280;17737;52.586;13.284;2023-10-19T00:51:29;100027.31;;;7.22;100.00
31082;BME280;17737;52.586;13.284;2023-10-19T00:54:09;100028.97;;;7.15;100.00
31082;BME280;17737;52.586;13.284;2023-10-19T00:56:41;100028.31;;;7.21;100.00
31082;BME280;17737;52.586;13.284;2023-10-19T00:59:14;100031.31;;;7.18;100.00
31082;BME280;17737;52.586;13.284;2023-10-19T01:01:51;100027.47;;;7.13;100.00
31082;BME280;17737;52.586;13.284;2023-10-19T01:04:22;100034.66;;;7.20;100.00
31082;BME280;17737;52.586;13.284;2023-10-19T01:06:51;100027.47;;;7.13;100.00
31082;BME280;17737;52.586;13.284;2023-10-19T01:09:31;100018.59;;;7.12;100.00
31082;BME280;17737;52.586;13.284;2023-10-19T01:12:03;100013.38;;;7.11;100.00
31082;BME280;17737;52.586;13.284;2023-10-19T01:14:43;100007.53;;;7.07;100.00
31082;BME280;17737;52.586;13.284;2023-10-19T01:17:13;100000.97;;;7.10;100.00
31082;BME280;17737;52.586;13.284;2023-10-19T01:19:40;100003.31;;;7.05;100.00
31082;BME280;17737;52.586;13.284;2023-10-19T01:22:08;99989.13;;;7.12;100.00
31082;BME280;17737;52.586;13.284;2023-10-19T01:24:44;99994.47;;;7.20;100.00
31082;BME280;17737;52.586;13.284;2023-10-19T01:27:12;99981.75;;;7.14;100.00
31082;BME280;17737;52.586;13.284;2023-10-19T01:29:40;99983.25;;;7.01;100.00
31082;BME280;17737;52.586;13.284;2023-10-19T01:32:08;99981.88;;;7.05;100.00
31082;BME280;17737;52.586;13.284;2023-10-19T01:34:36;99971.88;;;7.15;100.00
31082;BME280;17737;52.586;13.284;2023-10-19T01:37:04;99971.88;;;7.15;100.00
31082;BME280;17737;52.586;13.284;2023-10-19T01:39:33;99968.03;;;7.17;100.00
31082;BME280;17737;52.586;13.284;2023-10-19T01:42:03;99958.47;;;7.07;100.00
31082;BME280;17737;52.586;13.284;2023-10-19T01:44:32;99948.75;;;7.14;100.00
31082;BME280;17737;52.586;13.284;2023-10-19T01:47:02;99937.53;;;7.18;100.00
31082;BME280;17737;52.586;13.284;2023-10-19T01:49:32;99933.19;;;7.25;100.00
31082;BME280;17737;52.586;13.284;2023-10-19T01:51:59;99933.69;;;7.29;100.00
31082;BME280;17737;52.586;13.284;2023-10-19T01:54:27;99925.84;;;7.19;100.00
31082;BME280;17737;52.586;13.284;2023-10-19T01:56:55;99925.66;;;7.21;100.00
31082;BME280;17737;52.586;13.284;2023-10-19T01:59:28;99928.34;;;7.13;100.00
31082;BME280;17737;52.586;13.284;2023-10-19T02:01:56;99916.44;;;7.07;100.00
31082;BME280;17737;52.586;13.284;2023-10-19T02:04:23;99913.25;;;7.12;100.00
31082;BME280;17737;52.586;13.284;2023-10-19T02:06:52;99909.44;;;7.06;100.00
31082;BME280;17737;52.586;13.284;2023-10-19T02:09:20;99904.41;;;7.11;100.00
31082;BME280;17737;52.586;13.284;2023-10-19T02:11:53;99905.91;;;7.14;100.00
31082;BME280;17737;52.586;13.284;2023-10-19T02:14:25;99913.44;;;7.18;100.00
31082;BME280;17737;52.586;13.284;2023-10-19T02:16:55;99913.63;;;7.25;100.00
31082;BME280;17737;52.586;13.284;2023-10-19T02:19:26;99900.56;;;7.14;100.00
31082;BME280;17737;52.586;13.284;2023-10-19T02:21:55;99894.03;;;7.24;100.00
31082;BME280;17737;52.586;13.284;2023-10-19T02:24:23;99899.22;;;7.26;100.00
31082;BME280;17737;52.586;13.284;2023-10-19T02:26:54;99899.56;;;7.15;100.00
31082;BME280;17737;52.586;13.284;2023-10-19T02:29:25;99892.38;;;7.23;100.00
31082;BME280;17737;52.586;13.284;2023-10-19T02:31:52;99891.31;;;7.41;100.00
31082;BME280;17737;52.586;13.284;2023-10-19T02:34:21;99890.66;;;7.30;100.00
31082;BME280;17737;52.586;13.284;2023-10-19T02:36:49;99892.53;;;7.30;100.00
31082;BME280;17737;52.586;13.284;2023-10-19T02:39:16;99878.75;;;7.49;100.00
31082;BME280;17737;52.586;13.284;2023-10-19T02:41:45;99875.94;;;7.18;100.00
31082;BME280;17737;52.586;13.284;2023-10-19T02:44:14;99876.94;;;7.17;100.00
31082;BME280;17737;52.586;13.284;2023-10-19T02:46:50;99872.44;;;7.18;100.00
31082;BME280;17737;52.586;13.284;2023-10-19T02:49:21;99877.59;;;7.36;100.00
31082;BME280;17737;52.586;13.284;2023-10-19T02:51:49;99863.22;;;7.37;100.00
31082;BME280;17737;52.586;13.284;2023-10-19T02:54:18;99865.38;;;7.33;100.00
31082;BME280;17737;52.586;13.284;2023-10-19T02:56:49;99858.50;;;7.30;100.00
31082;BME280;17737;52.586;13.284;2023-10-19T02:59:18;99858.19;;;7.25;100.00
31082;BME280;17737;52.586;13.284;2023-10-19T03:01:50;99854.00;;;7.31;100.00
31082;BME280;17737;52.586;13.284;2023-10-19T03:04:18;99853.81;;;7.41;100.00
31082;BME280;17737;52.586;13.284;2023-10-19T03:06:47;99842.28;;;7.40;100.00
31082;BME280;17737;52.586;13.284;2023-10-19T03:09:14;99841.41;;;7.40;100.00
31082;BME280;17737;52.586;13.284;2023-10-19T03:11:48;99839.25;;;7.35;100.00
31082;BME280;17737;52.586;13.284;2023-10-19T03:14:19;99840.63;;;7.23;100.00
31082;BME280;17737;52.586;13.284;2023-10-19T03:16:47;99828.72;;;7.25;100.00
31082;BME280;17737;52.586;13.284;2023-10-19T03:19:15;99821.19;;;7.21;100.00
31082;BME280;17737;52.586;13.284;2023-10-19T03:21:43;99828.03;;;7.32;100.00
31082;BME280;17737;52.586;13.284;2023-10-19T03:24:10;99823.19;;;7.35;100.00
31082;BME280;17737;52.586;13.284;2023-10-19T03:26:41;99827.88;;;7.33;100.00
31082;BME280;17737;52.586;13.284;2023-10-19T03:29:13;99825.69;;;7.37;100.00
31082;BME280;17737;52.586;13.284;2023-10-19T03:31:44;99823.53;;;7.32;100.00
31082;BME280;17737;52.586;13.284;2023-10-19T03:34:13;99816.63;;;7.38;100.00
31082;BME280;17737;52.586;13.284;2023-10-19T03:36:44;99819.84;;;7.25;100.00
31082;BME280;17737;52.586;13.284;2023-10-19T03:39:12;99800.06;;;7.34;100.00
31082;BME280;17737;52.586;13.284;2023-10-19T03:41:41;99799.75;;;7.37;100.00
31082;BME280;17737;52.586;13.284;2023-10-19T03:44:09;99796.38;;;7.35;100.00
31082;BME280;17737;52.586;13.284;2023-10-19T03:46:42;99778.31;;;7.29;100.00
31082;BME280;17737;52.586;13.284;2023-10-19T03:49:21;99781.19;;;7.19;100.00
31082;BME280;17737;52.586;13.284;2023-10-19T03:51:53;99776.66;;;7.12;100.00
31082;BME280;17737;52.586;13.284;2023-10-19T03:54:30;99780.34;;;7.19;100.00
31082;BME280;17737;52.586;13.284;2023-10-19T03:56:59;99774.47;;;7.15;100.00
31082;BME280;17737;52.586;13.284;2023-10-19T03:59:32;99766.75;;;7.20;100.00
31082;BME280;17737;52.586;13.284;2023-10-19T04:02:01;99762.78;;;7.16;100.00
31082;BME280;17737;52.586;13.284;2023-10-19T04:04:36;99768.31;;;7.15;100.00
31082;BME280;17737;52.586;13.284;2023-10-19T04:07:06;99760.41;;;7.13;100.00
31082;BME280;17737;52.586;13.284;2023-10-19T04:09:44;99762.09;;;7.14;100.00
31082;BME280;17737;52.586;13.284;2023-10-19T04:12:25;99763.28;;;7.04;100.00
31082;BME280;17737;52.586;13.284;2023-10-19T04:14:57;99766.63;;;7.14;100.00
31082;BME280;17737;52.586;13.284;2023-10-19T04:17:30;99760.09;;;7.16;100.00
31082;BME280;17737;52.586;13.284;2023-10-19T04:19:58;99758.72;;;7.28;100.00
31082;BME280;17737;52.586;13.284;2023-10-19T04:22:36;99747.88;;;7.14;100.00
31082;BME280;17737;52.586;13.284;2023-10-19T04:25:04;99743.69;;;7.03;100.00
31082;BME280;17737;52.586;13.284;2023-10-19T04:27:33;99737.84;;;7.08;100.00
31082;BME280;17737;52.586;13.284;2023-10-19T04:30:02;99738.50;;;7.02;100.00
31082;BME280;17737;52.586;13.284;2023-10-19T04:32:30;99742.72;;;7.04;100.00
31082;BME280;17737;52.586;13.284;2023-10-19T04:34:58;99737.84;;;7.00;100.00
31082;BME280;17737;52.586;13.284;2023-10-19T04:37:26;99738.97;;;7.13;100.00
31082;BME280;17737;52.586;13.284;2023-10-19T04:39:55;99737.66;;;7.09;100.00
31082;BME280;17737;52.586;13.284;2023-10-19T04:42:23;99725.63;;;7.05;100.00
31082;BME280;17737;52.586;13.284;2023-10-19T04:44:53;99723.13;;;7.04;100.00
31082;BME280;17737;52.586;13.284;2023-10-19T04:47:21;99714.56;;;7.08;100.00
31082;BME280;17737;52.586;13.284;2023-10-19T04:49:52;99712.75;;;7.01;100.00
31082;BME280;17737;52.586;13.284;2023-10-19T04:52:20;99713.41;;;6.95;100.00
31082;BME280;17737;52.586;13.284;2023-10-19T04:54:48;99708.75;;;6.89;100.00
31082;BME280;17737;52.586;13.284;2023-10-19T04:57:17;99704.72;;;7.01;100.00
31082;BME280;17737;52.586;13.284;2023-10-19T04:59:45;99703.69;;;7.02;100.00
31082;BME280;17737;52.586;13.284;2023-10-19T05:02:12;99701.88;;;7.02;100.00
31082;BME280;17737;52.586;13.284;2023-10-19T05:04:40;99711.88;;;7.16;100.00
31082;BME280;17737;52.586;13.284;2023-10-19T05:07:08;99701.34;;;7.07;100.00
31082;BME280;17737;52.586;13.284;2023-10-19T05:09:38;99705.06;;;6.98;100.00
31082;BME280;17737;52.586;13.284;2023-10-19T05:12:06;99698.03;;;6.89;100.00
31082;BME280;17737;52.586;13.284;2023-10-19T05:14:37;99709.44;;;6.91;100.00
31082;BME280;17737;52.586;13.284;2023-10-19T05:17:07;99708.06;;;7.03;100.00
31082;BME280;17737;52.586;13.284;2023-10-19T05:19:36;99704.38;;;7.04;100.00
31082;BME280;17737;52.586;13.284;2023-10-19T05:22:06;99701.97;;;7.17;100.00
31082;BME280;17737;52.586;13.284;2023-10-19T05:24:34;99691.69;;;6.98;100.00
31082;BME280;17737;52.586;13.284;2023-10-19T05:27:03;99698.69;;;6.83;100.00
31082;BME280;17737;52.586;13.284;2023-10-19T05:29:32;99694.34;;;6.90;100.00
31082;BME280;17737;52.586;13.284;2023-10-19T05:32:01;99696.03;;;6.91;100.00
31082;BME280;17737;52.586;13.284;2023-10-19T05:34:30;99704.75;;;6.93;100.00
31082;BME280;17737;52.586;13.284;2023-10-19T05:36:59;99701.06;;;6.78;100.00
31082;BME280;17737;52.586;13.284;2023-10-19T05:39:28;99698.38;;;6.78;100.00
31082;BME280;17737;52.586;13.284;2023-10-19T05:41:57;99704.94;;;6.67;100.00
31082;BME280;17737;52.586;13.284;2023-10-19T05:44:27;99713.09;;;6.66;100.00
31082;BME280;17737;52.586;13.284;2023-10-19T05:46:57;99708.44;;;6.76;100.00
31082;BME280;17737;52.586;13.284;2023-10-19T05:49:28;99705.75;;;6.68;100.00
31082;BME280;17737;52.586;13.284;2023-10-19T05:51:56;99718.13;;;6.61;100.00
31082;BME280;17737;52.586;13.284;2023-10-19T05:54:24;99721.50;;;6.55;100.00
31082;BME280;17737;52.586;13.284;2023-10-19T05:56:51;99716.78;;;6.49;100.00
31082;BME280;17737;52.586;13.284;2023-10-19T05:59:19;99710.78;;;6.55;100.00
31082;BME280;17737;52.586;13.284;2023-10-19T06:01:47;99714.47;;;6.54;100.00
31082;BME280;17737;52.586;13.284;2023-10-19T06:04:15;99709.13;;;6.54;100.00
31082;BME280;17737;52.586;13.284;2023-10-19T06:06:48;99699.94;;;6.48;100.00
31082;BME280;17737;52.586;13.284;2023-10-19T06:09:16;99693.06;;;6.54;100.00
31082;BME280;17737;52.586;13.284;2023-10-19T06:11:44;99683.72;;;6.42;100.00
31082;BME280;17737;52.586;13.284;2023-10-19T06:14:12;99685.22;;;6.36;100.00
31082;BME280;17737;52.586;13.284;2023-10-19T06:16:40;99681.84;;;6.34;100.00
31082;BME280;17737;52.586;13.284;2023-10-19T06:19:08;99690.72;;;6.19;100.00
31082;BME280;17737;52.586;13.284;2023-10-19T06:21:36;99681.03;;;6.18;100.00
31082;BME280;17737;52.586;13.284;2023-10-19T06:24:06;99680.34;;;6.24;100.00
31082;BME280;17737;52.586;13.284;2023-10-19T06:26:34;99684.03;;;6.23;100.00
31082;BME280;17737;52.586;13.284;2023-10-19T06:29:02;99696.41;;;6.24;100.00
31082;BME280;17737;52.586;13.284;2023-10-19T06:31:31;99691.91;;;6.16;100.00
31082;BME280;17737;52.586;13.284;2023-10-19T06:33:59;99689.03;;;6.26;100.00
31082;BME280;17737;52.586;13.284;2023-10-19T06:36:28;99687.53;;;6.15;100.00
31082;BME280;17737;52.586;13.284;2023-10-19T06:38:56;99681.19;;;6.24;100.00
31082;BME280;17737;52.586;13.284;2023-10-19T06:41:25;99667.66;;;6.18;100.00
31082;BME280;17737;52.586;13.284;2023-10-19T06:43:53;99670.50;;;6.16;100.00
31082;BME280;17737;52.586;13.284;2023-10-19T06:46:22;99668.81;;;6.07;100.00
31082;BME280;17737;52.586;13.284;2023-10-19T06:48:49;99670.47;;;6.08;100.00
31082;BME280;17737;52.586;13.284;2023-10-19T06:51:22;99659.81;;;6.16;100.00
31082;BME280;17737;52.586;13.284;2023-10-19T06:53:52;99659.09;;;6.30;100.00
31082;BME280;17737;52.586;13.284;2023-10-19T06:56:21;99651.09;;;6.30;100.00
31082;BME280;17737;52.586;13.284;2023-10-19T06:58:50;99655.13;;;6.26;100.00
31082;BME280;17737;52.586;13.284;2023-10-19T07:01:19;99647.59;;;6.30;100.00
31082;BME280;17737;52.586;13.284;2023-10-19T07:03:52;99640.22;;;6.24;100.00
31082;BME280;17737;52.586;13.284;2023-10-19T07:06:20;99642.75;;;6.33;100.00
31082;BME280;17737;52.586;13.284;2023-10-19T07:08:48;99646.09;;;6.27;100.00
31082;BME280;17737;52.586;13.284;2023-10-19T07:11:15;99635.53;;;6.34;100.00
31082;BME280;17737;52.586;13.284;2023-10-19T07:13:44;99631.53;;;6.54;100.00
31082;BME280;17737;52.586;13.284;2023-10-19T07:16:13;99625.34;;;6.45;100.00
31082;BME280;17737;52.586;13.284;2023-10-19T07:18:41;99630.50;;;6.55;100.00
31082;BME280;17737;52.586;13.284;2023-10-19T07:21:09;99624.66;;;6.51;100.00
31082;BME280;17737;52.586;13.284;2023-10-19T07:23:38;99633.72;;;6.34;100.00
31082;BME280;17737;52.586;13.284;2023-10-19T07:26:06;99635.53;;;6.34;100.00
31082;BME280;17737;52.586;13.284;2023-10-19T07:28:35;99639.22;;;6.41;100.00
31082;BME280;17737;52.586;13.284;2023-10-19T07:31:05;99630.31;;;6.64;100.00
31082;BME280;17737;52.586;13.284;2023-10-19T07:33:40;99630.50;;;6.55;100.00
31082;BME280;17737;52.586;13.284;2023-10-19T07:36:12;99639.00;;;6.66;100.00
31082;BME280;17737;52.586;13.284;2023-10-19T07:38:41;99647.91;;;6.59;100.00
31082;BME280;17737;52.586;13.284;2023-10-19T07:41:10;99651.06;;;6.54;100.00
31082;BME280;17737;52.586;13.284;2023-10-19T07:43:38;99642.56;;;6.59;100.00
31082;BME280;17737;52.586;13.284;2023-10-19T07:46:06;99643.00;;;6.78;100.00
31082;BME280;17737;52.586;13.284;2023-10-19T07:48:34;99642.47;;;6.91;100.00
31082;BME280;17737;52.586;13.284;2023-10-19T07:51:04;99643.78;;;7.03;100.00
31082;BME280;17737;52.586;13.284;2023-10-19T07:53:32;99641.59;;;7.06;100.00
31082;BME280;17737;52.586;13.284;2023-10-19T07:55:59;99643.88;;;7.17;100.00
31082;BME280;17737;52.586;13.284;2023-10-19T07:58:27;99634.84;;;7.18;100.00
31082;BME280;17737;52.586;13.284;2023-10-19T08:00:56;99631.53;;;7.16;100.00
31082;BME280;17737;52.586;13.284;2023-10-19T08:03:24;99636.69;;;7.18;100.00
31082;BME280;17737;52.586;13.284;2023-10-19T08:05:52;99626.66;;;7.20;100.00
31082;BME280;17737;52.586;13.284;2023-10-19T08:08:21;99632.31;;;7.17;100.00
31082;BME280;17737;52.586;13.284;2023-10-19T08:10:51;99634.06;;;7.02;100.00
31082;BME280;17737;52.586;13.284;2023-10-19T08:13:18;99629.91;;;6.99;100.00
31082;BME280;17737;52.586;13.284;2023-10-19T08:15:46;99628.03;;;7.08;100.00
31082;BME280;17737;52.586;13.284;2023-10-19T08:18:14;99639.03;;;7.21;100.00
31082;BME280;17737;52.586;13.284;2023-10-19T08:20:42;99630.19;;;7.12;100.00
31082;BME280;17737;52.586;13.284;2023-10-19T08:23:11;99618.94;;;7.25;100.00
31082;BME280;17737;52.586;13.284;2023-10-19T08:25:44;99606.16;;;7.27;100.00
31082;BME280;17737;52.586;13.284;2023-10-19T08:28:22;99601.44;;;7.37;100.00
31082;BME280;17737;52.586;13.284;2023-10-19T08:30:50;99592.25;;;7.32;100.00
31082;BME280;17737;52.586;13.284;2023-10-19T08:33:28;99591.28;;;7.24;100.00
31082;BME280;17737;52.586;13.284;2023-10-19T08:35:59;99596.78;;;7.31;100.00
31082;BME280;17737;52.586;13.284;2023-10-19T08:38:27;99597.63;;;7.32;100.00
31082;BME280;17737;52.586;13.284;2023-10-19T08:40:57;99601.66;;;7.58;100.00
31082;BME280;17737;52.586;13.284;2023-10-19T08:43:26;99588.25;;;7.58;100.00
31082;BME280;17737;52.586;13.284;2023-10-19T08:45:54;99579.81;;;7.69;100.00
31082;BME280;17737;52.586;13.284;2023-10-19T08:48:23;99559.06;;;7.86;100.00
31082;BME280;17737;52.586;13.284;2023-10-19T08:50:51;99558.75;;;7.58;100.00
31082;BME280;17737;52.586;13.284;2023-10-19T08:53:22;99573.38;;;7.56;100.00
31082;BME280;17737;52.586;13.284;2023-10-19T08:55:51;99572.75;;;7.68;100.00
31082;BME280;17737;52.586;13.284;2023-10-19T08:58:22;99581.88;;;7.82;100.00
31082;BME280;17737;52.586;13.284;2023-10-19T09:00:51;99587.53;;;7.87;100.00
31082;BME280;17737;52.586;13.284;2023-10-19T09:03:22;99584.22;;;7.85;100.00
31082;BME280;17737;52.586;13.284;2023-10-19T09:05:52;99583.00;;;7.87;100.00
31082;BME280;17737;52.586;13.284;2023-10-19T09:08:20;99578.13;;;7.91;100.00
31082;BME280;17737;52.586;13.284;2023-10-19T09:10:49;99579.19;;;8.04;100.00
31082;BME280;17737;52.586;13.284;2023-10-19T09:13:21;99576.09;;;7.93;100.00
31082;BME280;17737;52.586;13.284;2023-10-19T09:15:51;99575.63;;;8.12;100.00
31082;BME280;17737;52.586;13.284;2023-10-19T09:18:23;99569.50;;;8.03;100.00
31082;BME280;17737;52.586;13.284;2023-10-19T09:20:54;99580.03;;;8.05;100.00
31082;BME280;17737;52.586;13.284;2023-10-19T09:23:29;99560.09;;;8.22;100.00
31082;BME280;17737;52.586;13.284;2023-10-19T09:25:58;99549.69;;;8.04;100.00
31082;BME280;17737;52.586;13.284;2023-10-19T09:28:30;99540.13;;;8.24;100.00
31082;BME280;17737;52.586;13.284;2023-10-19T09:31:00;99544.59;;;8.09;100.00
31082;BME280;17737;52.586;13.284;2023-10-19T09:33:30;99541.75;;;8.11;100.00
31082;BME280;17737;52.586;13.284;2023-10-19T09:36:00;99542.78;;;8.10;100.00
31082;BME280;17737;52.586;13.284;2023-10-19T09:38:30;99541.56;;;8.12;100.00
31082;BME280;17737;52.586;13.284;2023-10-19T09:40:59;99538.66;;;7.99;100.00
31082;BME280;17737;52.586;13.284;2023-10-19T09:43:33;99549.75;;;7.96;100.00
31082;BME280;17737;52.586;13.284;2023-10-19T09:46:06;99554.75;;;7.99;100.00
31082;BME280;17737;52.586;13.284;2023-10-19T09:48:36;99557.53;;;7.91;100.00
31082;BME280;17737;52.586;13.284;2023-10-19T09:51:08;99551.13;;;7.92;100.00
31082;BME280;17737;52.586;13.284;2023-10-19T09:53:40;99550.91;;;8.16;100.00
31082;BME280;17737;52.586;13.284;2023-10-19T09:56:13;99542.94;;;8.08;100.00
31082;BME280;17737;52.586;13.284;2023-10-19T09:58:52;99537.78;;;8.21;100.00
31082;BME280;17737;52.586;13.284;2023-10-19T10:01:22;99531.41;;;8.22;100.00
31082;BME280;17737;52.586;13.284;2023-10-19T10:03:52;99537.06;;;8.27;100.00
31082;BME280;17737;52.586;13.284;2023-10-19T10:06:27;99543.22;;;8.51;100.00
31082;BME280;17737;52.586;13.284;2023-10-19T10:08:56;99543.75;;;8.31;100.00
31082;BME280;17737;52.586;13.284;2023-10-19T10:11:27;99547.56;;;8.52;100.00
31082;BME280;17737;52.586;13.284;2023-10-19T10:13:57;99552.66;;;8.32;100.00
31082;BME280;17737;52.586;13.284;2023-10-19T10:16:27;99552.09;;;8.36;100.00
31082;BME280;17737;52.586;13.284;2023-10-19T10:18:57;99545.88;;;8.36;100.00
31082;BME280;17737;52.586;13.284;2023-10-19T10:21:26;99534.53;;;8.48;100.00
31082;BME280;17737;52.586;13.284;2023-10-19T10:23:56;99532.78;;;8.41;100.00
31082;BME280;17737;52.586;13.284;2023-10-19T10:26:25;99526.38;;;8.57;100.00
31082;BME280;17737;52.586;13.284;2023-10-19T10:29:10;99509.34;;;8.49;100.00
31082;BME280;17737;52.586;13.284;2023-10-19T10:31:46;99505.81;;;8.34;100.00
31082;BME280;17737;52.586;13.284;2023-10-19T10:37:11;99492.13;;;8.29;100.00
31082;BME280;17737;52.586;13.284;2023-10-19T10:39:40;99497.03;;;8.40;100.00
31082;BME280;17737;52.586;13.284;2023-10-19T10:42:11;99493.63;;;8.09;100.00
31082;BME280;17737;52.586;13.284;2023-10-19T10:44:42;99492.59;;;8.10;100.00
31082;BME280;17737;52.586;13.284;2023-10-19T10:47:12;99490.94;;;8.09;100.00
31082;BME280;17737;52.586;13.284;2023-10-19T10:49:50;99507.34;;;7.77;100.00
31082;BME280;17737;52.586;13.284;2023-10-19T10:52:26;99505.16;;;7.58;100.00
31082;BME280;17737;52.586;13.284;2023-10-19T10:54:56;99509.56;;;7.51;100.00
31082;BME280;17737;52.586;13.284;2023-10-19T10:57:30;99517.97;;;7.48;100.00
31082;BME280;17737;52.586;13.284;2023-10-19T11:00:04;99514.75;;;7.30;100.00
31082;BME280;17737;52.586;13.284;2023-10-19T11:02:34;99518.97;;;7.47;100.00
31082;BME280;17737;52.586;13.284;2023-10-19T11:05:03;99508.97;;;7.41;100.00
31082;BME280;17737;52.586;13.284;2023-10-19T11:07:32;99504.03;;;7.30;100.00
31082;BME280;17737;52.586;13.284;2023-10-19T11:09:59;99504.41;;;7.19;100.00
31082;BME280;17737;52.586;13.284;2023-10-19T11:12:28;99503.97;;;7.38;100.00
31082;BME280;17737;52.586;13.284;2023-10-19T11:14:56;99496.16;;;7.28;100.00
31082;BME280;17737;52.586;13.284;2023-10-19T11:17:28;99508.78;;;7.43;100.00
31082;BME280;17737;52.586;13.284;2023-10-19T11:19:58;99509.44;;;7.45;100.00
31082;BME280;17737;52.586;13.284;2023-10-19T11:22:26;99512.84;;;7.39;100.00
31082;BME280;17737;52.586;13.284;2023-10-19T11:24:54;99510.34;;;7.37;100.00
31082;BME280;17737;52.586;13.284;2023-10-19T11:27:23;99500.22;;;7.47;100.00
31082;BME280;17737;52.586;13.284;2023-10-19T11:29:55;99499.00;;;7.50;100.00
31082;BME280;17737;52.586;13.284;2023-10-19T11:32:24;99497.19;;;7.50;100.00
31082;BME280;17737;52.586;13.284;2023-10-19T11:34:54;99486.47;;;7.50;100.00
31082;BME280;17737;52.586;13.284;2023-10-19T11:37:22;99484.47;;;7.44;100.00
31082;BME280;17737;52.586;13.284;2023-10-19T11:39:50;99481.97;;;7.43;100.00
31082;BME280;17737;52.586;13.284;2023-10-19T11:42:18;99487.41;;;7.57;100.00
31082;BME280;17737;52.586;13.284;2023-10-19T11:44:46;99474.78;;;7.66;100.00
31082;BME280;17737;52.586;13.284;2023-10-19T11:47:14;99478.53;;;7.57;100.00
31082;BME280;17737;52.586;13.284;2023-10-19T11:49:42;99468.28;;;7.60;100.00
31082;BME280;17737;52.586;13.284;2023-10-19T11:52:11;99468.94;;;7.62;100.00
31082;BME280;17737;52.586;13.284;2023-10-19T11:54:39;99471.53;;;7.70;100.00
31082;BME280;17737;52.586;13.284;2023-10-19T11:57:07;99474.88;;;7.72;100.00
31082;BME280;17737;52.586;13.284;2023-10-19T11:59:36;99473.06;;;7.50;100.00
31082;BME280;17737;52.586;13.284;2023-10-19T12:02:04;99472.28;;;7.42;100.00
31082;BME280;17737;52.586;13.284;2023-10-19T12:04:33;99466.09;;;7.41;100.00
31082;BME280;17737;52.586;13.284;2023-10-19T12:07:02;99470.66;;;7.32;100.00
31082;BME280;17737;52.586;13.284;2023-10-19T12:09:33;99474.25;;;7.25;100.00
31082;BME280;17737;52.586;13.284;2023-10-19T12:12:02;99470.50;;;7.34;100.00
31082;BME280;17737;52.586;13.284;2023-10-19T12:14:32;99473.97;;;7.20;100.00
31082;BME280;17737;52.586;13.284;2023-10-19T12:17:00;99464.13;;;7.35;100.00
31082;BME280;17737;52.586;13.284;2023-10-19T12:19:29;99478.19;;;7.37;100.00
31082;BME280;17737;52.586;13.284;2023-10-19T12:21:57;99472.94;;;7.44;100.00
31082;BME280;17737;52.586;13.284;2023-10-19T12:24:27;99464.44;;;7.40;100.00
31082;BME280;17737;52.586;13.284;2023-10-19T12:26:57;99463.41;;;7.41;100.00
31082;BME280;17737;52.586;13.284;2023-10-19T12:29:25;99451.72;;;7.34;100.00
31082;BME280;17737;52.586;13.284;2023-10-19T12:31:53;99453.06;;;7.38;100.00
31082;BME280;17737;52.586;13.284;2023-10-19T12:34:20;99453.41;;;7.35;100.00
31082;BME280;17737;52.586;13.284;2023-10-19T12:36:49;99454.97;;;7.29;100.00
31082;BME280;17737;52.586;13.284;2023-10-19T12:39:18;99449.81;;;7.43;100.00
31082;BME280;17737;52.586;13.284;2023-10-19T12:42:01;99450.75;;;7.35;100.00
31082;BME280;17737;52.586;13.284;2023-10-19T12:44:29;99451.97;;;7.24;100.00
31082;BME280;17737;52.586;13.284;2023-10-19T12:47:05;99453.31;;;7.28;100.00
31082;BME280;17737;52.586;13.284;2023-10-19T12:49:36;99454.13;;;7.29;100.00
31082;BME280;17737;52.586;13.284;2023-10-19T12:52:04;99459.19;;;7.24;100.00
31082;BME280;17737;52.586;13.284;2023-10-19T12:54:33;99460.09;;;7.16;100.00
31082;BME280;17737;52.586;13.284;2023-10-19T12:57:03;99465.38;;;7.24;100.00
31082;BME280;17737;52.586;13.284;2023-10-19T12:59:34;99465.84;;;7.28;100.00
31082;BME280;17737;52.586;13.284;2023-10-19T13:02:04;99459.78;;;7.34;100.00
31082;BME280;17737;52.586;13.284;2023-10-19T13:04:35;99446.16;;;7.44;100.00